Time;durP1;ratioP1;P1;durP2;ratioP2;P2;SDS_P1;SDS_P2;PMS_P1;PMS_P2;Temp;Humidity;BMP_temperature;BMP_pressure;BME280_temperature;BME280_humidity;BME280_pressure;Samples;Min_cycle;Max_cycle;Signal;HPM_P1;HPM_P2
2022/06/05 00:01:16;;;;;;;8.43;6.70;;;;;;;21.99;67.46;100634.59;5085625;28;20665;-73
2022/06/05 00:03:53;;;;;;;8.40;6.10;;;;;;;21.95;67.59;100630.66;5089533;28;20222;-73
2022/06/05 00:06:28;;;;;;;8.30;6.00;;;;;;;21.94;67.72;100634.41;5086152;28;20199;-74
2022/06/05 00:09:17;;;;;;;9.57;6.60;;;;;;;21.91;67.64;100637.53;5093612;28;20479;-74
2022/06/05 00:11:53;;;;;;;10.70;6.47;;;;;;;21.89;68.02;100645.06;5095487;28;20252;-73
2022/06/05 00:14:22;;;;;;;7.33;6.10;;;;;;;21.89;67.88;100645.06;5100851;28;20300;-74
2022/06/05 00:16:52;;;;;;;7.97;6.80;;;;;;;21.88;67.73;100650.66;5100838;28;20245;-72
2022/06/05 00:19:19;;;;;;;9.83;6.30;;;;;;;21.87;67.95;100666.03;5095300;28;20320;-72
2022/06/05 00:21:47;;;;;;;8.07;6.23;;;;;;;21.88;68.28;100669.56;5094705;28;20205;-73
2022/06/05 00:24:24;;;;;;;7.20;6.03;;;;;;;21.86;68.13;100677.88;5084467;28;20206;-73
2022/06/05 00:26:59;;;;;;;6.97;6.07;;;;;;;21.87;68.56;100681.41;5083605;28;20218;-74
2022/06/05 00:29:52;;;;;;;8.73;6.50;;;;;;;21.84;68.22;100677.25;5083724;28;20292;-72
2022/06/05 00:32:28;;;;;;;6.50;5.70;;;;;;;21.85;68.28;100672.69;5082610;28;20242;-73
2022/06/05 00:34:56;;;;;;;9.83;5.83;;;;;;;21.79;68.81;100655.50;5085881;28;20209;-73
2022/06/05 00:37:35;;;;;;;7.83;5.70;;;;;;;21.70;69.82;100667.59;5085044;28;20234;-73
2022/06/05 00:40:28;;;;;;;6.63;5.83;;;;;;;21.67;69.43;100671.53;5087065;28;20260;-73
2022/06/05 00:42:58;;;;;;;6.57;5.70;;;;;;;21.66;69.97;100682.53;5079306;28;20238;-73
2022/06/05 00:45:31;;;;;;;8.07;6.30;;;;;;;21.70;69.90;100678.38;5084599;28;20195;-73
2022/06/05 00:48:03;;;;;;;10.40;6.47;;;;;;;21.71;69.56;100675.47;5084261;28;20337;-73
2022/06/05 00:50:32;;;;;;;6.63;5.60;;;;;;;21.66;69.95;100669.03;5082954;28;20206;-72
2022/06/05 00:53:06;;;;;;;8.20;6.40;;;;;;;21.60;70.44;100661.81;5083063;28;20211;-72
2022/06/05 00:55:39;;;;;;;6.97;5.83;;;;;;;21.57;70.71;100662.25;5086221;28;20252;-73
2022/06/05 00:58:08;;;;;;;7.17;6.47;;;;;;;21.48;71.06;100647.34;5090308;28;20227;-73
2022/06/05 01:00:38;;;;;;;13.80;6.23;;;;;;;21.48;70.84;100629.28;5095333;28;20242;-73
2022/06/05 01:03:10;;;;;;;10.80;6.30;;;;;;;21.44;71.16;100619.16;5086056;28;20325;-72
2022/06/05 01:05:39;;;;;;;13.57;7.07;;;;;;;21.45;71.02;100604.63;5093956;28;20647;-73
2022/06/05 01:08:08;;;;;;;8.13;6.60;;;;;;;21.44;71.03;100582.22;5100952;28;20238;-74
2022/06/05 01:10:49;;;;;;;7.67;6.43;;;;;;;21.35;71.59;100568.16;5094015;28;20213;-72
2022/06/05 01:13:30;;;;;;;10.10;7.20;;;;;;;21.28;72.36;100572.78;5084464;28;20639;-73
2022/06/05 01:16:05;;;;;;;11.43;7.37;;;;;;;21.33;72.01;100569.41;5084234;28;20637;-72
2022/06/05 01:18:44;;;;;;;9.40;7.50;;;;;;;21.39;72.11;100563.13;5083924;28;20268;-73
2022/06/05 01:21:32;;;;;;;8.73;6.37;;;;;;;21.32;72.88;100573.97;5084509;28;20210;-73
2022/06/05 01:24:14;;;;;;;8.23;7.23;;;;;;;21.33;72.98;100586.41;5082178;28;20351;-73
2022/06/05 01:26:50;;;;;;;8.53;6.93;;;;;;;21.38;72.97;100567.72;5085611;28;20217;-72
2022/06/05 01:29:22;;;;;;;7.77;5.87;;;;;;;21.43;72.77;100568.94;5081544;28;20718;-72
2022/06/05 01:31:54;;;;;;;9.77;6.40;;;;;;;21.38;73.08;100545.31;5084058;28;20261;-72
2022/06/05 01:34:27;;;;;;;6.80;6.10;;;;;;;21.31;73.77;100531.88;5083641;28;20249;-72
2022/06/05 01:37:01;;;;;;;9.63;6.33;;;;;;;21.29;73.87;100525.03;5083636;28;20297;-72
2022/06/05 01:39:36;;;;;;;15.23;6.87;;;;;;;21.23;75.95;100513.25;5083043;28;20221;-72
2022/06/05 01:42:08;;;;;;;8.37;7.43;;;;;;;21.17;76.73;100515.94;5085350;28;20574;-73
2022/06/05 01:44:39;;;;;;;7.60;6.73;;;;;;;21.14;77.49;100519.91;5084153;28;20241;-72
2022/06/05 01:47:13;;;;;;;9.20;7.07;;;;;;;21.17;77.52;100527.59;5085533;28;20709;-73
2022/06/05 01:49:47;;;;;;;10.17;7.13;;;;;;;21.24;77.76;100531.06;5083695;28;20834;-73
2022/06/05 01:52:21;;;;;;;8.90;7.40;;;;;;;21.30;77.37;100532.06;5084257;28;20210;-72
2022/06/05 01:54:55;;;;;;;8.93;6.50;;;;;;;21.33;77.10;100527.09;5083288;28;20253;-72
2022/06/05 01:57:27;;;;;;;10.30;7.23;;;;;;;21.37;77.12;100531.00;5086641;28;20237;-72
2022/06/05 02:00:01;;;;;;;10.60;7.20;;;;;;;21.33;78.44;100526.25;5086786;28;20202;-72
2022/06/05 02:02:46;;;;;;;11.43;7.57;;;;;;;21.25;78.29;100508.47;5081462;28;20199;-71
2022/06/05 02:05:23;;;;;;;8.63;7.73;;;;;;;21.16;77.77;100498.94;5079402;28;20733;-72
2022/06/05 02:07:58;;;;;;;10.03;8.20;;;;;;;21.07;78.67;100484.06;5080318;28;20207;-72
2022/06/05 02:10:34;;;;;;;8.87;7.90;;;;;;;21.00;79.41;100472.50;5083444;28;20203;-73
2022/06/05 02:13:05;;;;;;;9.27;8.37;;;;;;;20.95;78.98;100443.47;5084484;28;20206;-72
2022/06/05 02:15:36;;;;;;;9.67;7.70;;;;;;;20.96;78.40;100428.13;5081007;28;20260;-73
2022/06/05 02:18:05;;;;;;;9.77;7.73;;;;;;;20.98;78.62;100401.78;5083219;28;20217;-73
2022/06/05 02:20:33;;;;;;;11.33;7.97;;;;;;;20.94;79.02;100376.31;5082051;28;20289;-72
2022/06/05 02:23:06;;;;;;;10.27;8.63;;;;;;;20.95;78.91;100357.22;5083746;28;20765;-72
2022/06/05 02:25:37;;;;;;;10.07;8.80;;;;;;;20.98;78.06;100335.25;5085217;28;20202;-72
2022/06/05 02:28:08;;;;;;;10.97;8.60;;;;;;;21.07;77.42;100308.00;5084316;28;20199;-72
2022/06/05 02:30:44;;;;;;;10.03;7.70;;;;;;;21.01;77.81;100286.28;5088519;28;20675;-72
2022/06/05 02:33:23;;;;;;;13.57;9.50;;;;;;;20.97;78.15;100274.28;5081886;28;20301;-72
2022/06/05 02:35:59;;;;;;;9.00;7.73;;;;;;;20.95;77.88;100275.53;5089753;28;20236;-72
2022/06/05 02:38:41;;;;;;;15.47;8.50;;;;;;;20.96;77.21;100280.72;5084398;28;20588;-72
2022/06/05 02:41:12;;;;;;;8.53;7.63;;;;;;;20.95;77.29;100276.38;5085927;28;20293;-71
2022/06/05 02:44:28;;;;;;;10.80;8.10;;;;;;;20.96;76.44;100263.72;5085863;28;21834;-72
2022/06/05 02:46:48;;;;;;;9.43;8.13;;;;;;;20.95;76.27;100253.97;5086729;28;20666;-72
2022/06/05 02:49:21;;;;;;;8.60;7.80;;;;;;;20.99;75.92;100261.41;5086490;28;22326;-73
2022/06/05 02:51:49;;;;;;;8.73;7.93;;;;;;;21.07;75.48;100284.56;5086371;28;20348;-73
2022/06/05 02:54:26;;;;;;;9.60;7.63;;;;;;;21.12;75.26;100302.75;5083840;28;21503;-73
2022/06/05 02:56:55;;;;;;;9.33;7.90;;;;;;;21.15;75.13;100321.19;5086134;28;20245;-73
2022/06/05 02:59:25;;;;;;;11.50;8.53;;;;;;;21.16;75.03;100321.00;5094472;28;20213;-73
2022/06/05 03:04:39;;;;;;;8.47;7.60;;;;;;;21.24;74.30;100285.69;5101730;28;20233;-72
2022/06/05 03:07:07;;;;;;;9.17;8.23;;;;;;;21.20;74.75;100295.25;5096635;28;20606;-72
2022/06/05 03:09:35;;;;;;;10.37;8.10;;;;;;;21.21;74.47;100305.00;5086451;28;20245;-72
2022/06/05 03:12:04;;;;;;;8.60;7.70;;;;;;;21.21;74.50;100296.91;5086560;28;20293;-72
2022/06/05 03:14:35;;;;;;;8.83;7.53;;;;;;;21.24;74.01;100306.44;5085349;28;20408;-72
2022/06/05 03:17:06;;;;;;;10.37;8.60;;;;;;;21.23;74.07;100313.69;5086145;28;20221;-72
2022/06/05 03:19:34;;;;;;;10.27;8.30;;;;;;;21.22;73.97;100311.22;5085148;28;20211;-72
2022/06/05 03:22:02;;;;;;;11.37;8.93;;;;;;;21.21;74.09;100323.88;5089170;28;20635;-72
2022/06/05 03:24:31;;;;;;;11.17;8.70;;;;;;;21.21;74.16;100336.53;5084943;28;20248;-72
2022/06/05 03:27:00;;;;;;;10.00;8.93;;;;;;;21.18;74.19;100362.06;5086145;28;20309;-72
2022/06/05 03:29:27;;;;;;;12.83;8.80;;;;;;;21.18;74.59;100382.81;5085601;28;20902;-73
2022/06/05 03:31:57;;;;;;;13.10;8.97;;;;;;;21.17;74.53;100398.16;5084239;28;20206;-73
2022/06/05 03:34:25;;;;;;;10.77;9.40;;;;;;;21.16;74.99;100407.28;5085485;28;20214;-72
2022/06/05 03:36:53;;;;;;;10.80;9.70;;;;;;;21.15;74.81;100429.88;5085976;28;21524;-72
2022/06/05 03:39:21;;;;;;;11.43;9.30;;;;;;;21.11;75.14;100452.91;5085965;28;20289;-73
2022/06/05 03:41:49;;;;;;;9.47;8.43;;;;;;;21.13;74.91;100466.19;5089860;28;20203;-72
2022/06/05 03:44:17;;;;;;;12.40;9.30;;;;;;;21.13;75.22;100460.78;5086532;28;20289;-73
2022/06/05 03:46:44;;;;;;;10.07;9.03;;;;;;;21.09;75.13;100462.28;5086662;28;20298;-73
2022/06/05 03:49:14;;;;;;;11.43;9.33;;;;;;;21.07;75.41;100449.00;5070803;28;20434;-73
2022/06/05 03:51:42;;;;;;;10.57;9.17;;;;;;;21.05;75.53;100448.41;5066684;28;20204;-72
2022/06/05 03:54:10;;;;;;;11.03;9.47;;;;;;;21.04;75.35;100452.97;5065268;28;20302;-72
2022/06/05 03:56:38;;;;;;;11.17;9.90;;;;;;;21.07;75.17;100462.50;5066337;28;20641;-72
2022/06/05 03:59:06;;;;;;;10.70;9.63;;;;;;;21.10;75.13;100483.66;5064185;28;20231;-73
2022/06/05 04:01:34;;;;;;;10.80;9.40;;;;;;;21.08;75.36;100487.59;5066159;28;20608;-73
2022/06/05 04:04:02;;;;;;;9.97;8.97;;;;;;;21.07;75.72;100510.19;5062874;28;22273;-72
2022/06/05 04:06:32;;;;;;;11.80;10.00;;;;;;;21.07;76.00;100527.19;5063359;28;20302;-72
2022/06/05 04:09:02;;;;;;;11.87;9.73;;;;;;;21.06;76.57;100536.31;5064932;28;20211;-73
2022/06/05 04:11:32;;;;;;;11.67;10.13;;;;;;;21.02;78.10;100543.22;5063439;28;20214;-70
2022/06/05 04:14:01;;;;;;;11.93;9.93;;;;;;;20.99;78.95;100544.47;5063102;28;20200;-70
2022/06/05 04:16:31;;;;;;;11.30;10.20;;;;;;;21.01;79.29;100549.63;5067391;28;20215;-71
2022/06/05 04:19:00;;;;;;;13.43;10.77;;;;;;;20.93;80.99;100542.59;5062571;28;20294;-73
2022/06/05 04:21:32;;;;;;;15.33;11.30;;;;;;;20.84;82.00;100553.84;5063956;28;20208;-73
2022/06/05 04:24:01;;;;;;;14.07;11.13;;;;;;;20.76;82.94;100554.09;5064539;28;20638;-70
2022/06/05 04:26:32;;;;;;;18.70;12.83;;;;;;;20.77;84.33;100561.09;5063729;28;20215;-70
2022/06/05 04:29:00;;;;;;;15.23;12.00;;;;;;;20.76;84.82;100559.47;5063838;28;20232;-70
2022/06/05 04:31:31;;;;;;;14.50;11.33;;;;;;;20.78;84.79;100557.38;5065100;28;20214;-70
2022/06/05 04:34:02;;;;;;;13.53;12.20;;;;;;;20.77;84.67;100561.09;5064526;28;20211;-70
2022/06/05 04:36:31;;;;;;;13.43;12.10;;;;;;;20.80;84.51;100563.38;5065122;28;20215;-71
2022/06/05 04:38:59;;;;;;;14.30;12.03;;;;;;;20.78;84.76;100554.69;5064510;28;20294;-71
2022/06/05 04:41:27;;;;;;;14.37;12.93;;;;;;;20.74;85.20;100551.59;5064468;28;20199;-71
2022/06/05 04:43:56;;;;;;;14.97;12.50;;;;;;;20.72;84.67;100547.47;5064970;28;20555;-72
2022/06/05 04:46:26;;;;;;;14.03;12.60;;;;;;;20.56;86.60;100546.88;5065308;28;20199;-71
2022/06/05 04:48:54;;;;;;;18.33;13.40;;;;;;;20.39;88.66;100534.91;5075163;28;20621;-71
2022/06/05 04:51:23;;;;;;;18.57;13.37;;;;;;;20.29;89.95;100535.31;5085180;28;20318;-72
2022/06/05 04:53:54;;;;;;;20.80;13.53;;;;;;;20.32;89.72;100533.25;5083524;28;20226;-72
2022/06/05 04:56:24;;;;;;;15.80;13.50;;;;;;;20.35;90.77;100522.06;5082867;28;20699;-72
2022/06/05 04:58:53;;;;;;;20.37;14.10;;;;;;;20.36;91.32;100524.56;5086410;28;20206;-72
2022/06/05 05:01:22;;;;;;;19.10;13.60;;;;;;;20.42;91.81;100529.09;5090340;28;20203;-72
2022/06/05 05:03:53;;;;;;;17.40;14.57;;;;;;;20.48;91.41;100517.50;5087000;28;20234;-73
2022/06/05 05:06:22;;;;;;;21.10;14.20;;;;;;;20.47;91.48;100510.44;5091160;28;20234;-72
2022/06/05 05:08:50;;;;;;;16.43;14.20;;;;;;;20.37;94.31;100517.31;5086167;28;20296;-73
2022/06/05 05:11:21;;;;;;;21.00;14.13;;;;;;;20.38;94.51;100516.28;5080953;28;20207;-72
2022/06/05 05:13:50;;;;;;;16.50;14.63;;;;;;;20.33;95.18;100508.78;5079507;28;20301;-73
2022/06/05 05:16:26;;;;;;;15.63;13.13;;;;;;;20.24;96.41;100520.81;5083440;28;20285;-73
2022/06/05 05:18:55;;;;;;;20.27;16.50;;;;;;;20.29;96.73;100529.09;5085063;28;20203;-72
2022/06/05 05:21:26;;;;;;;19.47;14.47;;;;;;;20.34;96.53;100518.53;5086577;28;20268;-73
2022/06/05 05:23:55;;;;;;;18.33;16.27;;;;;;;20.36;95.74;100505.69;5086206;28;20203;-72
2022/06/05 05:26:25;;;;;;;17.67;15.20;;;;;;;20.29;97.54;100491.41;5081980;28;20664;-73
2022/06/05 05:28:55;;;;;;;17.93;16.03;;;;;;;20.23;99.23;100478.75;5081993;28;20313;-73
2022/06/05 05:31:26;;;;;;;19.00;16.13;;;;;;;20.11;100.00;100469.69;5083816;28;20227;-72
2022/06/05 05:33:54;;;;;;;17.93;15.37;;;;;;;20.02;100.00;100447.56;5081895;28;20203;-73
2022/06/05 05:36:24;;;;;;;17.60;14.67;;;;;;;20.00;100.00;100440.72;5081421;28;20639;-72
2022/06/05 05:44:32;;;;;;;17.00;15.17;;;;;;;20.07;100.00;100414.59;5085588;28;20210;-73
2022/06/05 05:47:00;;;;;;;18.03;16.03;;;;;;;20.01;100.00;100407.38;5086228;28;20297;-72
2022/06/05 05:49:30;;;;;;;18.33;16.10;;;;;;;20.00;100.00;100405.72;5083924;28;20279;-74
2022/06/05 05:51:58;;;;;;;23.47;16.40;;;;;;;19.96;100.00;100412.59;5086014;28;20621;-73
2022/06/05 05:54:25;;;;;;;17.07;15.37;;;;;;;19.97;100.00;100406.13;5084738;28;20239;-74
2022/06/05 05:56:56;;;;;;;17.83;16.03;;;;;;;19.96;100.00;100399.13;5084940;28;20199;-72
2022/06/05 05:59:25;;;;;;;17.57;15.70;;;;;;;19.96;100.00;100402.66;5080532;28;20226;-72
2022/06/05 06:01:53;;;;;;;17.33;15.53;;;;;;;19.95;100.00;100405.56;5085393;28;20199;-73
2022/06/05 06:04:22;;;;;;;18.50;16.60;;;;;;;20.03;100.00;100406.16;5083643;28;20207;-71
2022/06/05 06:06:50;;;;;;;17.50;15.57;;;;;;;20.06;100.00;100402.19;5085373;28;20252;-71
2022/06/05 06:09:20;;;;;;;19.57;17.00;;;;;;;20.05;100.00;100384.41;5088221;28;20215;-71
2022/06/05 06:11:49;;;;;;;19.33;15.97;;;;;;;20.03;100.00;100363.09;5087637;28;20215;-71
2022/06/05 06:14:18;;;;;;;18.23;16.27;;;;;;;20.07;100.00;100363.47;5088295;28;20203;-72
2022/06/05 06:16:46;;;;;;;17.70;15.90;;;;;;;20.08;100.00;100336.34;5087936;28;20298;-73
2022/06/05 06:19:14;;;;;;;17.00;15.27;;;;;;;20.10;100.00;100319.97;5089258;28;20221;-73
2022/06/05 06:21:44;;;;;;;18.73;16.30;;;;;;;20.15;100.00;100323.69;5089429;28;20215;-73
2022/06/05 06:24:13;;;;;;;18.60;16.70;;;;;;;20.12;100.00;100307.97;5088012;28;20244;-74
2022/06/05 06:26:42;;;;;;;18.97;17.07;;;;;;;20.09;100.00;100318.31;5087450;28;20250;-72
2022/06/05 06:29:15;;;;;;;18.00;16.27;;;;;;;20.09;100.00;100326.41;5086555;28;20241;-73
2022/06/05 06:31:44;;;;;;;20.07;15.43;;;;;;;20.09;100.00;100331.78;5087566;28;20723;-72
2022/06/05 06:34:12;;;;;;;20.93;17.27;;;;;;;20.06;100.00;100341.09;5086415;28;20242;-72
2022/06/05 06:36:40;;;;;;;17.40;15.73;;;;;;;20.06;100.00;100353.75;5090381;28;20199;-72
2022/06/05 06:39:18;;;;;;;18.90;16.93;;;;;;;20.12;100.00;100356.44;5085120;28;20251;-73
2022/06/05 06:41:47;;;;;;;17.90;16.03;;;;;;;20.15;100.00;100352.47;5084429;28;20213;-72
2022/06/05 06:44:15;;;;;;;20.10;18.00;;;;;;;20.15;100.00;100345.22;5085869;28;20988;-73
2022/06/05 06:46:45;;;;;;;18.47;16.57;;;;;;;20.15;100.00;100344.38;5088908;28;20222;-71
2022/06/05 06:49:13;;;;;;;19.03;17.07;;;;;;;20.17;100.00;100342.31;5085458;28;20227;-71
2022/06/05 06:51:41;;;;;;;18.40;16.50;;;;;;;20.13;100.00;100333.03;5087142;28;20285;-70
2022/06/05 06:54:09;;;;;;;18.23;16.40;;;;;;;20.14;100.00;100338.16;5083947;28;20217;-71
2022/06/05 06:56:37;;;;;;;18.37;16.50;;;;;;;20.15;100.00;100333.63;5085842;28;20289;-70
2022/06/05 06:59:06;;;;;;;18.80;16.83;;;;;;;20.18;100.00;100338.59;5086800;28;20206;-70
2022/06/05 07:01:34;;;;;;;18.37;15.77;;;;;;;20.20;100.00;100333.81;5093227;28;20297;-71
2022/06/05 07:04:04;;;;;;;18.50;16.60;;;;;;;20.27;100.00;100335.44;5090955;28;20211;-70
2022/06/05 07:06:32;;;;;;;18.97;16.57;;;;;;;20.30;99.91;100334.19;5088325;28;20241;-71
2022/06/05 07:08:59;;;;;;;18.03;16.20;;;;;;;20.34;100.00;100326.50;5087244;28;20264;-71
2022/06/05 07:11:36;;;;;;;17.83;16.03;;;;;;;20.37;100.00;100326.94;5084874;28;20293;-71
2022/06/05 07:14:04;;;;;;;23.50;17.93;;;;;;;20.34;100.00;100321.97;5083565;28;20305;-69
2022/06/05 07:16:32;;;;;;;18.83;17.03;;;;;;;20.35;100.00;100322.78;5082812;28;20199;-71
2022/06/05 07:19:00;;;;;;;18.67;16.87;;;;;;;20.36;100.00;100319.88;5086545;28;20207;-71
2022/06/05 07:21:30;;;;;;;17.77;15.93;;;;;;;20.39;100.00;100332.94;5082983;28;20217;-71
2022/06/05 07:24:01;;;;;;;17.90;16.03;;;;;;;20.36;100.00;100325.28;5086162;28;20211;-71
2022/06/05 07:26:32;;;;;;;17.87;16.03;;;;;;;20.41;100.00;100322.75;5086425;28;20268;-70
2022/06/05 07:29:00;;;;;;;18.70;16.83;;;;;;;20.46;100.00;100312.16;5086440;28;20233;-70
2022/06/05 07:31:30;;;;;;;17.27;15.57;;;;;;;20.44;100.00;100316.94;5084482;28;20214;-70
2022/06/05 07:33:59;;;;;;;16.83;14.93;;;;;;;20.48;100.00;100318.19;5086076;28;20272;-70
2022/06/05 07:36:29;;;;;;;16.80;15.20;;;;;;;20.54;100.00;100322.69;5084485;28;20664;-70
2022/06/05 07:38:57;;;;;;;16.33;14.63;;;;;;;20.62;100.00;100311.66;5085226;28;20619;-70
2022/06/05 07:41:28;;;;;;;17.43;15.70;;;;;;;20.69;100.00;100302.69;5083173;28;20799;-70
2022/06/05 07:44:04;;;;;;;17.20;15.33;;;;;;;20.74;100.00;100306.41;5083987;28;20217;-69
2022/06/05 07:46:34;;;;;;;17.93;16.03;;;;;;;20.73;99.17;100310.13;5079639;28;20255;-69
2022/06/05 07:49:02;;;;;;;16.70;14.90;;;;;;;20.73;100.00;100314.69;5086511;28;20302;-69
2022/06/05 07:54:29;;;;;;;15.10;13.70;;;;;;;20.71;98.51;100312.22;5078733;28;20202;-69
2022/06/05 07:57:00;;;;;;;16.40;14.17;;;;;;;20.74;99.05;100300.19;5085764;28;20211;-69
2022/06/05 07:59:30;;;;;;;14.97;13.50;;;;;;;20.78;98.31;100296.00;5081848;28;20229;-71
2022/06/05 08:01:59;;;;;;;16.63;14.17;;;;;;;20.80;97.31;100292.03;5085073;28;20655;-70
2022/06/05 08:04:28;;;;;;;15.37;13.83;;;;;;;20.79;96.77;100286.88;5083193;28;20223;-71
2022/06/05 08:06:59;;;;;;;17.70;14.57;;;;;;;20.82;97.10;100287.25;5087746;28;20237;-71
2022/06/05 08:09:27;;;;;;;14.77;13.27;;;;;;;20.85;95.81;100269.81;5084504;28;20207;-71
2022/06/05 08:11:55;;;;;;;15.50;13.97;;;;;;;20.90;95.02;100273.53;5081637;28;20229;-72
2022/06/05 08:14:23;;;;;;;17.60;13.70;;;;;;;20.93;95.95;100288.44;5086600;28;20301;-70
2022/06/05 08:16:51;;;;;;;14.80;13.33;;;;;;;20.94;94.82;100290.88;5084709;28;20571;-70
2022/06/05 08:19:23;;;;;;;16.17;13.57;;;;;;;20.96;94.57;100291.50;5085125;28;20541;-70
2022/06/05 08:21:52;;;;;;;14.70;13.20;;;;;;;20.99;94.11;100292.94;5081848;28;20256;-70
2022/06/05 08:24:22;;;;;;;15.23;13.73;;;;;;;21.02;93.04;100295.19;5082642;28;20639;-70
2022/06/05 08:26:52;;;;;;;16.33;14.03;;;;;;;21.05;92.01;100281.25;5083042;28;20253;-70
2022/06/05 08:29:22;;;;;;;14.87;13.37;;;;;;;21.10;92.07;100289.53;5083538;28;20584;-70
2022/06/05 08:31:49;;;;;;;15.17;13.63;;;;;;;21.13;92.23;100293.63;5082165;28;20668;-70
2022/06/05 08:34:18;;;;;;;15.00;13.40;;;;;;;21.13;90.63;100294.47;5083468;28;20241;-70
2022/06/05 08:36:45;;;;;;;15.73;14.20;;;;;;;21.16;90.33;100302.13;5088622;28;20337;-70
2022/06/05 08:42:14;;;;;;;18.03;14.63;;;;;;;21.19;90.64;100306.28;5091015;28;20238;-71
2022/06/05 08:44:48;;;;;;;16.43;14.53;;;;;;;21.20;90.58;100310.59;5090223;28;20203;-71
2022/06/05 08:47:32;;;;;;;19.23;16.20;;;;;;;21.21;90.10;100305.00;5084335;28;20261;-71
2022/06/05 08:50:06;;;;;;;18.00;15.50;;;;;;;21.27;90.73;100314.91;5092213;28;20230;-70
2022/06/05 08:52:44;;;;;;;17.77;14.17;;;;;;;21.29;91.53;100314.66;5086093;28;20220;-70
2022/06/05 08:55:17;;;;;;;18.37;16.47;;;;;;;21.32;91.29;100317.75;5087943;28;20918;-70
2022/06/05 08:57:51;;;;;;;18.03;16.03;;;;;;;21.35;91.06;100325.41;5088544;28;20195;-71
2022/06/05 09:00:26;;;;;;;18.87;16.87;;;;;;;21.36;90.92;100334.34;5092292;28;20202;-71
2022/06/05 09:03:01;;;;;;;16.13;14.37;;;;;;;21.38;90.13;100324.94;5094344;28;20221;-71
2022/06/05 09:05:33;;;;;;;18.57;16.77;;;;;;;21.39;88.73;100326.59;5090696;28;20205;-71
2022/06/05 09:08:04;;;;;;;17.37;15.57;;;;;;;21.46;88.56;100336.53;5091102;28;20236;-71
2022/06/05 09:10:35;;;;;;;14.93;13.53;;;;;;;21.49;88.08;100347.69;5090693;28;20202;-71
2022/06/05 09:13:10;;;;;;;15.90;14.10;;;;;;;21.53;86.95;100337.28;5094293;28;20199;-71
2022/06/05 09:15:43;;;;;;;14.50;12.13;;;;;;;21.62;87.61;100346.75;5092509;28;20311;-71
2022/06/05 09:18:16;;;;;;;13.97;12.57;;;;;;;21.66;87.67;100343.34;5099576;28;20228;-71
2022/06/05 09:20:51;;;;;;;15.97;13.20;;;;;;;21.73;87.37;100346.81;5096036;28;20203;-70
2022/06/05 09:23:31;;;;;;;14.40;10.50;;;;;;;21.77;83.78;100337.22;5085405;28;20203;-72
2022/06/05 09:26:08;;;;;;;16.07;11.40;;;;;;;21.87;83.02;100342.09;5090593;28;20210;-73
2022/06/05 09:29:03;;;;;;;12.13;10.93;;;;;;;21.97;81.64;100347.84;5082820;28;20234;-72
2022/06/05 09:32:02;;;;;;;13.17;10.83;;;;;;;22.07;81.07;100348.13;5089043;28;20206;-72
2022/06/05 09:34:35;;;;;;;14.03;10.67;;;;;;;22.13;79.68;100349.94;5085702;28;20647;-71
2022/06/05 09:37:12;;;;;;;12.47;11.13;;;;;;;22.13;78.54;100344.53;5084792;28;20616;-71
2022/06/05 09:39:45;;;;;;;14.83;11.23;;;;;;;22.11;77.98;100335.81;5085983;28;20673;-70
2022/06/05 09:42:39;;;;;;;12.37;10.73;;;;;;;22.18;77.91;100329.50;5083182;28;20285;-73
2022/06/05 09:45:24;;;;;;;12.00;10.60;;;;;;;22.31;77.86;100316.66;5087950;28;20260;-72
2022/06/05 09:48:02;;;;;;;11.73;10.53;;;;;;;22.41;76.62;100308.84;5092477;28;20213;-72
2022/06/05 09:50:31;;;;;;;12.43;10.97;;;;;;;22.49;75.73;100305.00;5091484;28;20639;-72
2022/06/05 09:52:59;;;;;;;11.77;10.20;;;;;;;22.62;75.00;100299.38;5091864;28;20218;-73
2022/06/05 09:55:46;;;;;;;13.17;11.07;;;;;;;22.69;75.87;100305.50;5093255;28;20278;-74
2022/06/05 09:58:35;;;;;;;15.13;10.43;;;;;;;22.79;76.41;100294.97;5087169;28;20202;-73
2022/06/05 10:01:22;;;;;;;11.17;9.90;;;;;;;22.98;75.87;100293.00;5095683;28;20213;-70
2022/06/05 10:03:51;;;;;;;11.52;10.38;;;;;;;23.09;73.24;100294.09;5091415;28;20201;-71
2022/06/05 10:06:30;;;;;;;12.67;9.50;;;;;;;23.21;71.12;100289.53;5092827;28;20621;-74
2022/06/05 10:09:11;;;;;;;11.98;9.90;;;;;;;23.38;70.81;100297.75;5091343;28;20226;-71
2022/06/05 10:11:51;;;;;;;12.13;10.70;;;;;;;23.49;71.30;100292.34;5088567;28;20205;-76
2022/06/05 10:14:30;;;;;;;14.60;11.80;;;;;;;23.51;72.39;100298.34;5087970;28;20230;-69
2022/06/05 10:17:14;;;;;;;13.88;12.55;;;;;;;23.48;69.87;100287.16;5089037;28;20610;-71
2022/06/05 10:20:01;;;;;;;11.73;10.52;;;;;;;23.39;68.69;100278.59;5087097;28;20215;-68
2022/06/05 10:22:35;;;;;;;12.75;11.43;;;;;;;23.50;71.86;100285.88;5084115;28;20199;-72
2022/06/05 10:25:18;;;;;;;12.98;11.68;;;;;;;23.54;72.67;100287.06;5089807;28;20202;-72
2022/06/05 10:27:52;;;;;;;13.63;11.65;;;;;;;23.50;75.58;100291.28;5086943;28;20218;-73
2022/06/05 10:30:26;;;;;;;12.38;10.80;;;;;;;23.38;72.65;100285.06;5092432;28;20241;-72
2022/06/05 10:33:01;;;;;;;15.15;11.35;;;;;;;23.37;70.22;100291.50;5095531;28;20241;-72
2022/06/05 10:35:40;;;;;;;14.25;10.57;;;;;;;23.20;69.59;100306.81;5097666;28;20199;-73
2022/06/05 10:38:28;;;;;;;12.25;11.00;;;;;;;23.09;71.07;100299.50;5101116;28;20216;-72
2022/06/05 10:41:03;;;;;;;13.38;11.13;;;;;;;22.97;72.40;100298.66;5092777;28;20207;-72
2022/06/05 10:43:33;;;;;;;17.77;12.00;;;;;;;22.95;71.99;100289.97;5087721;28;20237;-72
2022/06/05 10:46:03;;;;;;;14.88;10.75;;;;;;;22.94;72.00;100285.63;5089341;28;20317;-73
2022/06/05 10:48:48;;;;;;;12.20;10.52;;;;;;;22.91;72.61;100281.50;5086804;28;20266;-71
2022/06/05 10:51:24;;;;;;;12.27;10.07;;;;;;;22.95;72.32;100285.38;5086539;28;20293;-72
2022/06/05 10:53:58;;;;;;;12.18;10.57;;;;;;;23.00;71.62;100287.38;5084167;28;20544;-71
2022/06/05 10:56:35;;;;;;;11.63;10.52;;;;;;;22.98;70.79;100286.78;5087543;28;20209;-71
2022/06/05 10:59:14;;;;;;;12.07;10.00;;;;;;;22.95;70.78;100285.38;5087806;28;20198;-71
2022/06/05 11:01:51;;;;;;;12.55;10.30;;;;;;;22.99;70.80;100277.63;5087060;28;20325;-72
2022/06/05 11:04:34;;;;;;;14.82;10.88;;;;;;;22.99;71.71;100283.03;5084098;28;20202;-72
2022/06/05 11:07:14;;;;;;;13.68;10.48;;;;;;;23.13;70.95;100279.84;5086820;28;20238;-68
2022/06/05 11:09:49;;;;;;;13.90;11.32;;;;;;;23.09;71.10;100277.88;5089339;28;20202;-69
2022/06/05 11:15:18;;;;;;;12.02;10.82;;;;;;;22.92;72.54;100282.31;5085814;28;20549;-70
2022/06/05 11:18:04;;;;;;;13.10;11.57;;;;;;;22.88;71.33;100292.75;5085363;28;20462;-71
2022/06/05 11:20:36;;;;;;;15.18;12.43;;;;;;;22.78;71.49;100279.81;5084391;28;20202;-71
2022/06/05 11:23:07;;;;;;;13.50;12.10;;;;;;;22.76;71.85;100284.66;5084148;28;20211;-73
2022/06/05 11:25:46;;;;;;;14.03;12.53;;;;;;;22.70;72.72;100296.34;5084043;28;20283;-73
2022/06/05 11:28:46;;;;;;;13.73;11.80;;;;;;;22.59;75.90;100280.94;5083551;28;20295;-74
2022/06/05 11:31:36;;;;;;;13.77;12.47;;;;;;;22.52;79.03;100283.72;5079752;28;20217;-73
2022/06/05 11:34:19;;;;;;;17.07;15.37;;;;;;;22.51;78.08;100287.50;5086587;28;20234;-73
2022/06/05 11:36:51;;;;;;;17.03;15.33;;;;;;;22.41;79.71;100283.69;5087384;28;20249;-73
2022/06/05 11:39:30;;;;;;;18.43;16.53;;;;;;;22.37;80.51;100286.03;5087843;28;20220;-73
2022/06/05 11:42:14;;;;;;;19.03;17.03;;;;;;;22.31;81.95;100264.53;5084591;28;20202;-72
2022/06/05 11:44:48;;;;;;;19.98;17.88;;;;;;;22.42;79.91;100263.75;5086567;28;20580;-72
2022/06/05 11:47:43;;;;;;;19.33;17.33;;;;;;;22.25;82.16;100257.34;5087197;28;20252;-71
2022/06/05 11:50:23;;;;;;;20.70;17.33;;;;;;;22.16;83.95;100267.66;5063716;28;20237;-72
2022/06/05 11:53:08;;;;;;;19.33;17.33;;;;;;;22.11;85.38;100276.41;5067252;28;20224;-75
2022/06/05 11:55:46;;;;;;;24.13;20.37;;;;;;;22.07;87.09;100263.59;5068174;28;20218;-73